sensor_id;sensor_type;location;lat;lon;timestamp;pressure;altitude;pressure_sealevel;temperature;humidity
33625;BME280;19962;47.820;1.930;2023-02-01T00:02:03;101807.34;;;9.86;79.91
33625;BME280;19962;47.820;1.930;2023-02-01T00:04:29;101815.84;;;9.91;79.90
33625;BME280;19962;47.820;1.930;2023-02-01T00:06:56;101811.66;;;9.95;79.59
33625;BME280;19962;47.820;1.930;2023-02-01T00:09:22;101804.28;;;9.95;80.00
33625;BME280;19962;47.820;1.930;2023-02-01T00:11:49;101799.91;;;10.01;79.48
33625;BME280;19962;47.820;1.930;2023-02-01T00:14:15;101805.38;;;10.01;79.57
33625;BME280;19962;47.820;1.930;2023-02-01T00:16:41;101803.59;;;10.08;79.36
33625;BME280;19962;47.820;1.930;2023-02-01T00:19:11;101789.22;;;10.06;79.19
33625;BME280;19962;47.820;1.930;2023-02-01T00:21:38;101788.31;;;9.99;79.44
33625;BME280;19962;47.820;1.930;2023-02-01T00:24:04;101790.38;;;9.97;79.46
33625;BME280;19962;47.820;1.930;2023-02-01T00:26:42;101785.81;;;10.04;79.61
33625;BME280;19962;47.820;1.930;2023-02-01T00:29:18;101785.03;;;10.10;79.37
33625;BME280;19962;47.820;1.930;2023-02-01T00:31:44;101783.75;;;10.06;79.09
33625;BME280;19962;47.820;1.930;2023-02-01T00:34:13;101787.25;;;10.00;79.48
33625;BME280;19962;47.820;1.930;2023-02-01T00:36:41;101787.16;;;10.08;79.67
33625;BME280;19962;47.820;1.930;2023-02-01T00:39:07;101784.13;;;10.03;79.39
33625;BME280;19962;47.820;1.930;2023-02-01T00:41:34;101775.69;;;10.04;79.52
33625;BME280;19962;47.820;1.930;2023-02-01T00:44:00;101788.41;;;10.05;79.44
33625;BME280;19962;47.820;1.930;2023-02-01T00:46:27;101790.78;;;9.94;79.84
33625;BME280;19962;47.820;1.930;2023-02-01T00:48:54;101787.00;;;9.95;80.16
33625;BME280;19962;47.820;1.930;2023-02-01T00:51:23;101793.13;;;9.97;79.96
33625;BME280;19962;47.820;1.930;2023-02-01T00:53:49;101793.78;;;9.99;80.21
33625;BME280;19962;47.820;1.930;2023-02-01T00:56:16;101791.78;;;10.07;79.80
33625;BME280;19962;47.820;1.930;2023-02-01T00:58:43;101799.13;;;10.07;79.88
33625;BME280;19962;47.820;1.930;2023-02-01T01:01:15;101805.94;;;10.11;79.61
33625;BME280;19962;47.820;1.930;2023-02-01T01:03:44;101800.66;;;10.09;79.61
33625;BME280;19962;47.820;1.930;2023-02-01T01:06:14;101792.22;;;10.11;79.55
33625;BME280;19962;47.820;1.930;2023-02-01T01:08:41;101794.03;;;10.04;79.89
33625;BME280;19962;47.820;1.930;2023-02-01T01:11:12;101792.34;;;10.03;80.00
33625;BME280;19962;47.820;1.930;2023-02-01T01:13:38;101782.91;;;10.05;80.06
33625;BME280;19962;47.820;1.930;2023-02-01T01:16:07;101785.03;;;10.10;79.88
33625;BME280;19962;47.820;1.930;2023-02-01T01:18:34;101780.88;;;10.14;79.62
33625;BME280;19962;47.820;1.930;2023-02-01T01:21:01;101792.13;;;10.04;80.14
33625;BME280;19962;47.820;1.930;2023-02-01T01:23:29;101795.09;;;10.03;80.41
33625;BME280;19962;47.820;1.930;2023-02-01T01:25:55;101791.28;;;10.04;80.51
33625;BME280;19962;47.820;1.930;2023-02-01T01:28:22;101783.34;;;10.09;80.45
33625;BME280;19962;47.820;1.930;2023-02-01T01:30:48;101783.47;;;10.01;80.96
33625;BME280;19962;47.820;1.930;2023-02-01T01:33:14;101786.47;;;10.06;80.63
33625;BME280;19962;47.820;1.930;2023-02-01T01:35:40;101791.97;;;10.06;80.43
33625;BME280;19962;47.820;1.930;2023-02-01T01:38:08;101791.78;;;10.07;80.61
33625;BME280;19962;47.820;1.930;2023-02-01T01:40:35;101794.31;;;10.09;80.61
33625;BME280;19962;47.820;1.930;2023-02-01T01:43:01;101796.78;;;10.04;81.04
33625;BME280;19962;47.820;1.930;2023-02-01T01:45:32;101795.75;;;10.05;81.07
33625;BME280;19962;47.820;1.930;2023-02-01T01:48:25;101793.72;;;10.13;81.07
33625;BME280;19962;47.820;1.930;2023-02-01T01:51:10;101793.13;;;10.18;80.50
33625;BME280;19962;47.820;1.930;2023-02-01T01:53:45;101806.66;;;10.19;80.28
33625;BME280;19962;47.820;1.930;2023-02-01T01:56:14;101802.16;;;10.12;80.76
33625;BME280;19962;47.820;1.930;2023-02-01T01:58:41;101797.31;;;10.14;80.75
33625;BME280;19962;47.820;1.930;2023-02-01T02:01:07;101802.00;;;10.20;80.48
33625;BME280;19962;47.820;1.930;2023-02-01T02:03:35;101796.53;;;10.20;80.52
33625;BME280;19962;47.820;1.930;2023-02-01T02:06:05;101796.31;;;10.21;80.67
33625;BME280;19962;47.820;1.930;2023-02-01T02:08:34;101799.31;;;10.26;80.63
33625;BME280;19962;47.820;1.930;2023-02-01T02:11:01;101793.19;;;10.24;80.74
33625;BME280;19962;47.820;1.930;2023-02-01T02:13:31;101792.13;;;10.04;81.41
33625;BME280;19962;47.820;1.930;2023-02-01T02:16:59;101785.03;;;10.10;81.46
33625;BME280;19962;47.820;1.930;2023-02-01T02:27:10;101785.44;;;10.07;81.67
33625;BME280;19962;47.820;1.930;2023-02-01T02:30:22;101797.31;;;10.14;81.70
33625;BME280;19962;47.820;1.930;2023-02-01T02:36:35;101787.59;;;10.11;81.93
33625;BME280;19962;47.820;1.930;2023-02-01T02:39:08;101782.16;;;10.18;81.46
33625;BME280;19962;47.820;1.930;2023-02-01T02:47:49;101785.72;;;10.12;81.93
33625;BME280;19962;47.820;1.930;2023-02-01T02:50:34;101786.53;;;10.12;82.24
33625;BME280;19962;47.820;1.930;2023-02-01T02:53:32;101790.59;;;10.16;82.19
33625;BME280;19962;47.820;1.930;2023-02-01T02:56:18;101792.28;;;10.17;82.11
33625;BME280;19962;47.820;1.930;2023-02-01T02:59:06;101786.34;;;10.14;82.15
33625;BME280;19962;47.820;1.930;2023-02-01T03:01:54;101791.84;;;10.14;82.53
33625;BME280;19962;47.820;1.930;2023-02-01T03:04:39;101786.78;;;10.17;82.50
33625;BME280;19962;47.820;1.930;2023-02-01T03:09:59;101782.81;;;10.20;82.41
33625;BME280;19962;47.820;1.930;2023-02-01T03:12:32;101780.13;;;10.26;82.39
33625;BME280;19962;47.820;1.930;2023-02-01T03:15:26;101777.19;;;10.28;82.28
33625;BME280;19962;47.820;1.930;2023-02-01T03:17:55;101776.31;;;10.21;82.95
33625;BME280;19962;47.820;1.930;2023-02-01T03:20:24;101781.97;;;10.19;82.52
33625;BME280;19962;47.820;1.930;2023-02-01T03:22:53;101782.16;;;10.18;83.05
33625;BME280;19962;47.820;1.930;2023-02-01T03:25:27;101780.53;;;10.23;82.76
33625;BME280;19962;47.820;1.930;2023-02-01T03:27:59;101790.97;;;10.13;83.33
33625;BME280;19962;47.820;1.930;2023-02-01T03:30:37;101802.00;;;10.20;83.27
33625;BME280;19962;47.820;1.930;2023-02-01T03:33:07;101797.81;;;10.24;83.02
33625;BME280;19962;47.820;1.930;2023-02-01T03:41:01;101815.06;;;10.18;83.68
33625;BME280;19962;47.820;1.930;2023-02-01T03:43:33;101810.03;;;10.21;83.37
33625;BME280;19962;47.820;1.930;2023-02-01T03:46:05;101808.34;;;10.20;83.43
33625;BME280;19962;47.820;1.930;2023-02-01T03:48:36;101809.22;;;10.21;83.75
33625;BME280;19962;47.820;1.930;2023-02-01T03:51:05;101806.97;;;10.10;84.37
33625;BME280;19962;47.820;1.930;2023-02-01T03:53:34;101822.13;;;10.06;84.33
33625;BME280;19962;47.820;1.930;2023-02-01T03:56:02;101809.47;;;10.05;84.67
33625;BME280;19962;47.820;1.930;2023-02-01T03:58:28;101800.00;;;10.07;84.81
33625;BME280;19962;47.820;1.930;2023-02-01T04:00:59;101808.53;;;10.19;84.58
33625;BME280;19962;47.820;1.930;2023-02-01T04:03:27;101805.03;;;10.25;84.09
33625;BME280;19962;47.820;1.930;2023-02-01T04:05:53;101803.72;;;10.21;83.97
33625;BME280;19962;47.820;1.930;2023-02-01T04:08:20;101803.72;;;10.21;84.22
33625;BME280;19962;47.820;1.930;2023-02-01T04:10:46;101795.69;;;10.19;84.38
33625;BME280;19962;47.820;1.930;2023-02-01T04:13:13;101799.53;;;10.25;84.03
33625;BME280;19962;47.820;1.930;2023-02-01T04:15:39;101794.00;;;10.18;84.38
33625;BME280;19962;47.820;1.930;2023-02-01T04:18:05;101801.22;;;10.26;84.22
33625;BME280;19962;47.820;1.930;2023-02-01T04:20:31;101800.81;;;10.29;83.70
33625;BME280;19962;47.820;1.930;2023-02-01T04:22:57;101808.41;;;10.27;83.75
33625;BME280;19962;47.820;1.930;2023-02-01T04:25:24;101814.69;;;10.21;83.95
33625;BME280;19962;47.820;1.930;2023-02-01T04:27:50;101806.72;;;10.26;83.99
33625;BME280;19962;47.820;1.930;2023-02-01T04:30:16;101810.75;;;10.30;83.72
33625;BME280;19962;47.820;1.930;2023-02-01T04:32:42;101805.91;;;10.32;83.76
33625;BME280;19962;47.820;1.930;2023-02-01T04:35:09;101812.00;;;10.27;83.22
33625;BME280;19962;47.820;1.930;2023-02-01T04:37:35;101806.25;;;10.22;83.42
33625;BME280;19962;47.820;1.930;2023-02-01T04:40:01;101817.50;;;10.27;83.62
33625;BME280;19962;47.820;1.930;2023-02-01T04:42:29;101826.16;;;10.31;83.38
33625;BME280;19962;47.820;1.930;2023-02-01T04:44:55;101827.47;;;10.35;83.04
33625;BME280;19962;47.820;1.930;2023-02-01T04:47:21;101822.25;;;10.40;82.79
33625;BME280;19962;47.820;1.930;2023-02-01T04:49:47;101824.06;;;10.33;82.99
33625;BME280;19962;47.820;1.930;2023-02-01T04:52:13;101811.78;;;10.29;82.77
33625;BME280;19962;47.820;1.930;2023-02-01T04:54:39;101811.41;;;10.32;83.03
33625;BME280;19962;47.820;1.930;2023-02-01T04:57:05;101816.88;;;10.32;82.91
33625;BME280;19962;47.820;1.930;2023-02-01T04:59:32;101821.13;;;10.34;82.61
33625;BME280;19962;47.820;1.930;2023-02-01T05:01:58;101820.88;;;10.29;82.38
33625;BME280;19962;47.820;1.930;2023-02-01T05:04:24;101829.50;;;10.26;82.31
33625;BME280;19962;47.820;1.930;2023-02-01T05:06:50;101828.91;;;10.31;82.10
33625;BME280;19962;47.820;1.930;2023-02-01T05:09:16;101824.88;;;10.27;81.99
33625;BME280;19962;47.820;1.930;2023-02-01T05:11:43;101838.44;;;10.35;82.23
33625;BME280;19962;47.820;1.930;2023-02-01T05:14:27;101830.84;;;10.37;81.75
33625;BME280;19962;47.820;1.930;2023-02-01T05:16:53;101836.78;;;10.40;81.67
33625;BME280;19962;47.820;1.930;2023-02-01T05:19:19;101833.66;;;10.43;81.37
33625;BME280;19962;47.820;1.930;2023-02-01T05:21:45;101819.06;;;10.36;80.12
33625;BME280;19962;47.820;1.930;2023-02-01T05:24:11;101827.22;;;10.30;80.44
33625;BME280;19962;47.820;1.930;2023-02-01T05:26:46;101821.50;;;9.89;79.93
33625;BME280;19962;47.820;1.930;2023-02-01T05:29:13;101825.25;;;10.03;80.58
33625;BME280;19962;47.820;1.930;2023-02-01T05:31:39;101829.91;;;10.23;79.96
33625;BME280;19962;47.820;1.930;2023-02-01T05:34:06;101826.16;;;10.31;79.42
33625;BME280;19962;47.820;1.930;2023-02-01T05:36:32;101832.47;;;10.25;78.75
33625;BME280;19962;47.820;1.930;2023-02-01T05:38:58;101822.38;;;10.32;78.86
33625;BME280;19962;47.820;1.930;2023-02-01T05:41:24;101822.00;;;10.35;78.50
33625;BME280;19962;47.820;1.930;2023-02-01T05:43:50;101834.22;;;10.32;78.40
33625;BME280;19962;47.820;1.930;2023-02-01T05:46:16;101835.91;;;10.33;78.01
33625;BME280;19962;47.820;1.930;2023-02-01T05:48:43;101852.88;;;10.22;77.41
33625;BME280;19962;47.820;1.930;2023-02-01T05:51:10;101850.47;;;10.13;77.29
33625;BME280;19962;47.820;1.930;2023-02-01T05:53:36;101846.94;;;10.19;77.30
33625;BME280;19962;47.820;1.930;2023-02-01T05:56:03;101848.06;;;10.24;77.02
33625;BME280;19962;47.820;1.930;2023-02-01T05:58:30;101856.34;;;10.10;76.89
33625;BME280;19962;47.820;1.930;2023-02-01T06:00:58;101866.53;;;10.16;77.24
33625;BME280;19962;47.820;1.930;2023-02-01T06:03:24;101866.19;;;10.25;77.15
33625;BME280;19962;47.820;1.930;2023-02-01T06:05:50;101866.66;;;10.29;76.77
33625;BME280;19962;47.820;1.930;2023-02-01T06:08:16;101861.16;;;10.29;76.64
33625;BME280;19962;47.820;1.930;2023-02-01T06:10:43;101860.53;;;10.27;76.64
33625;BME280;19962;47.820;1.930;2023-02-01T06:13:09;101861.38;;;10.27;76.80
33625;BME280;19962;47.820;1.930;2023-02-01T06:15:35;101858.84;;;10.26;76.63
33625;BME280;19962;47.820;1.930;2023-02-01T06:18:03;101857.59;;;10.28;76.86
33625;BME280;19962;47.820;1.930;2023-02-01T06:20:30;101852.28;;;10.27;76.46
33625;BME280;19962;47.820;1.930;2023-02-01T06:22:56;101855.69;;;10.29;76.75
33625;BME280;19962;47.820;1.930;2023-02-01T06:25:22;101858.03;;;10.32;77.08
33625;BME280;19962;47.820;1.930;2023-02-01T06:27:48;101857.16;;;10.25;77.03
33625;BME280;19962;47.820;1.930;2023-02-01T06:30:14;101844.44;;;10.24;77.03
33625;BME280;19962;47.820;1.930;2023-02-01T06:32:41;101853.72;;;10.23;77.38
33625;BME280;19962;47.820;1.930;2023-02-01T06:35:08;101849.28;;;10.22;77.24
33625;BME280;19962;47.820;1.930;2023-02-01T06:37:37;101849.28;;;10.22;77.04
33625;BME280;19962;47.820;1.930;2023-02-01T06:40:04;101849.50;;;10.20;77.08
33625;BME280;19962;47.820;1.930;2023-02-01T06:42:31;101864.50;;;10.24;77.01
33625;BME280;19962;47.820;1.930;2023-02-01T06:44:57;101856.84;;;10.20;77.29
33625;BME280;19962;47.820;1.930;2023-02-01T06:47:23;101863.41;;;10.19;77.49
33625;BME280;19962;47.820;1.930;2023-02-01T06:49:49;101870.84;;;10.25;77.51
33625;BME280;19962;47.820;1.930;2023-02-01T06:52:15;101888.16;;;10.25;77.30
33625;BME280;19962;47.820;1.930;2023-02-01T06:54:41;101883.91;;;10.23;77.45
33625;BME280;19962;47.820;1.930;2023-02-01T06:57:07;101878.03;;;10.26;77.72
33625;BME280;19962;47.820;1.930;2023-02-01T06:59:33;101880.31;;;10.22;77.73
33625;BME280;19962;47.820;1.930;2023-02-01T07:01:59;101889.25;;;10.10;77.56
33625;BME280;19962;47.820;1.930;2023-02-01T07:04:25;101887.56;;;10.09;77.25
33625;BME280;19962;47.820;1.930;2023-02-01T07:06:51;101891.19;;;10.16;76.66
33625;BME280;19962;47.820;1.930;2023-02-01T07:09:17;101889.63;;;10.07;76.86
33625;BME280;19962;47.820;1.930;2023-02-01T07:11:44;101894.44;;;10.19;76.76
33625;BME280;19962;47.820;1.930;2023-02-01T07:14:13;101899.31;;;10.24;76.52
33625;BME280;19962;47.820;1.930;2023-02-01T07:16:39;101904.22;;;10.28;76.58
33625;BME280;19962;47.820;1.930;2023-02-01T07:19:05;101905.84;;;10.23;76.72
33625;BME280;19962;47.820;1.930;2023-02-01T07:21:31;101910.09;;;10.25;76.69
33625;BME280;19962;47.820;1.930;2023-02-01T07:23:58;101920.69;;;10.28;76.45
33625;BME280;19962;47.820;1.930;2023-02-01T07:26:25;101924.72;;;10.32;76.33
33625;BME280;19962;47.820;1.930;2023-02-01T07:28:51;101924.31;;;10.35;76.14
33625;BME280;19962;47.820;1.930;2023-02-01T07:31:18;101923.69;;;10.33;76.50
33625;BME280;19962;47.820;1.930;2023-02-01T07:33:49;101919.44;;;10.31;76.32
33625;BME280;19962;47.820;1.930;2023-02-01T07:36:19;101915.38;;;10.27;76.20
33625;BME280;19962;47.820;1.930;2023-02-01T07:38:45;101916.38;;;10.19;76.37
33625;BME280;19962;47.820;1.930;2023-02-01T07:41:16;101920.22;;;10.25;76.44
33625;BME280;19962;47.820;1.930;2023-02-01T07:43:43;101931.97;;;10.19;76.35
33625;BME280;19962;47.820;1.930;2023-02-01T07:46:10;101924.25;;;10.29;76.07
33625;BME280;19962;47.820;1.930;2023-02-01T07:48:36;101925.75;;;10.31;76.11
33625;BME280;19962;47.820;1.930;2023-02-01T07:51:08;101925.38;;;10.34;75.94
33625;BME280;19962;47.820;1.930;2023-02-01T07:53:35;101921.81;;;10.34;76.00
33625;BME280;19962;47.820;1.930;2023-02-01T07:56:02;101932.97;;;10.32;75.52
33625;BME280;19962;47.820;1.930;2023-02-01T07:58:29;101938.91;;;10.36;75.62
33625;BME280;19962;47.820;1.930;2023-02-01T08:00:55;101940.59;;;10.37;75.75
33625;BME280;19962;47.820;1.930;2023-02-01T08:03:40;101950.31;;;10.39;75.20
33625;BME280;19962;47.820;1.930;2023-02-01T08:06:07;101941.19;;;10.32;75.05
33625;BME280;19962;47.820;1.930;2023-02-01T08:08:33;101935.44;;;10.27;74.71
33625;BME280;19962;47.820;1.930;2023-02-01T08:11:00;101943.78;;;10.40;74.94
33625;BME280;19962;47.820;1.930;2023-02-01T08:13:27;101948.31;;;10.48;74.52
33625;BME280;19962;47.820;1.930;2023-02-01T08:15:58;101955.50;;;10.49;74.27
33625;BME280;19962;47.820;1.930;2023-02-01T08:18:25;101964.00;;;10.54;74.27
33625;BME280;19962;47.820;1.930;2023-02-01T08:20:51;101963.78;;;10.55;73.66
33625;BME280;19962;47.820;1.930;2023-02-01T08:23:17;101964.06;;;10.60;74.15
33625;BME280;19962;47.820;1.930;2023-02-01T08:25:44;101943.03;;;10.67;73.84
33625;BME280;19962;47.820;1.930;2023-02-01T08:28:10;101953.78;;;10.69;73.82
33625;BME280;19962;47.820;1.930;2023-02-01T08:30:38;101956.13;;;10.72;73.03
33625;BME280;19962;47.820;1.930;2023-02-01T08:33:05;101961.63;;;10.72;73.30
33625;BME280;19962;47.820;1.930;2023-02-01T08:35:34;101951.31;;;10.74;72.89
33625;BME280;19962;47.820;1.930;2023-02-01T08:38:00;101938.81;;;10.71;72.79
33625;BME280;19962;47.820;1.930;2023-02-01T08:40:27;101935.88;;;10.73;72.52
33625;BME280;19962;47.820;1.930;2023-02-01T08:42:53;101936.88;;;10.65;72.22
33625;BME280;19962;47.820;1.930;2023-02-01T08:45:26;101940.47;;;10.66;72.06
33625;BME280;19962;47.820;1.930;2023-02-01T08:47:54;101943.72;;;10.76;72.18
33625;BME280;19962;47.820;1.930;2023-02-01T08:50:22;101947.38;;;10.83;71.22
33625;BME280;19962;47.820;1.930;2023-02-01T08:52:48;101945.28;;;10.85;70.91
33625;BME280;19962;47.820;1.930;2023-02-01T08:55:15;101935.16;;;10.85;70.58
33625;BME280;19962;47.820;1.930;2023-02-01T08:57:42;101945.31;;;10.91;70.45
33625;BME280;19962;47.820;1.930;2023-02-01T09:00:12;101943.16;;;10.87;70.45
33625;BME280;19962;47.820;1.930;2023-02-01T09:02:39;101940.22;;;10.88;70.47
33625;BME280;19962;47.820;1.930;2023-02-01T09:05:06;101940.28;;;10.95;70.71
33625;BME280;19962;47.820;1.930;2023-02-01T09:07:33;101940.53;;;11.00;70.51
33625;BME280;19962;47.820;1.930;2023-02-01T09:09:59;101941.47;;;10.86;70.36
33625;BME280;19962;47.820;1.930;2023-02-01T09:12:28;101939.84;;;10.91;69.79
33625;BME280;19962;47.820;1.930;2023-02-01T09:14:55;101942.81;;;10.96;69.89
33625;BME280;19962;47.820;1.930;2023-02-01T09:17:21;101941.81;;;11.04;69.30
33625;BME280;19962;47.820;1.930;2023-02-01T09:19:47;101937.38;;;11.03;69.24
33625;BME280;19962;47.820;1.930;2023-02-01T09:22:15;101943.31;;;11.06;68.33
33625;BME280;19962;47.820;1.930;2023-02-01T09:24:42;101932.53;;;11.05;68.46
33625;BME280;19962;47.820;1.930;2023-02-01T09:27:08;101947.56;;;11.09;68.53
33625;BME280;19962;47.820;1.930;2023-02-01T09:29:34;101952.22;;;11.08;68.02
33625;BME280;19962;47.820;1.930;2023-02-01T09:32:00;101958.97;;;11.06;68.61
33625;BME280;19962;47.820;1.930;2023-02-01T09:34:26;101955.66;;;11.17;68.23
33625;BME280;19962;47.820;1.930;2023-02-01T09:36:52;101968.19;;;11.26;68.22
33625;BME280;19962;47.820;1.930;2023-02-01T09:39:19;101967.59;;;11.30;68.17
33625;BME280;19962;47.820;1.930;2023-02-01T09:47:16;101973.53;;;11.34;68.09
33625;BME280;19962;47.820;1.930;2023-02-01T09:49:59;101979.03;;;11.34;66.73
33625;BME280;19962;47.820;1.930;2023-02-01T09:52:42;101976.47;;;11.32;66.35
33625;BME280;19962;47.820;1.930;2023-02-01T09:55:20;101965.44;;;11.26;67.76
33625;BME280;19962;47.820;1.930;2023-02-01T09:57:56;101968.47;;;11.37;67.59
33625;BME280;19962;47.820;1.930;2023-02-01T10:00:30;101970.94;;;11.26;67.16
33625;BME280;19962;47.820;1.930;2023-02-01T10:02:59;101971.84;;;11.33;67.24
33625;BME280;19962;47.820;1.930;2023-02-01T10:13:58;101989.06;;;11.48;65.50
33625;BME280;19962;47.820;1.930;2023-02-01T10:16:43;101994.78;;;11.53;65.55
33625;BME280;19962;47.820;1.930;2023-02-01T10:22:43;101996.28;;;11.55;65.88
33625;BME280;19962;47.820;1.930;2023-02-01T10:25:22;102006.53;;;11.61;64.73
33625;BME280;19962;47.820;1.930;2023-02-01T10:27:49;101999.50;;;11.59;65.83
33625;BME280;19962;47.820;1.930;2023-02-01T10:30:24;101998.47;;;11.60;65.49
33625;BME280;19962;47.820;1.930;2023-02-01T10:33:18;101999.50;;;11.59;64.55
33625;BME280;19962;47.820;1.930;2023-02-01T10:35:46;102008.03;;;11.64;65.00
33625;BME280;19962;47.820;1.930;2023-02-01T10:38:26;102007.59;;;11.67;64.35
33625;BME280;19962;47.820;1.930;2023-02-01T10:40:57;102006.09;;;11.64;64.75
33625;BME280;19962;47.820;1.930;2023-02-01T10:43:24;101999.31;;;11.60;65.47
33625;BME280;19962;47.820;1.930;2023-02-01T10:45:51;102013.97;;;11.67;65.25
33625;BME280;19962;47.820;1.930;2023-02-01T10:48:17;102009.31;;;11.68;65.17
33625;BME280;19962;47.820;1.930;2023-02-01T10:50:58;102013.25;;;11.59;64.87
33625;BME280;19962;47.820;1.930;2023-02-01T10:56:11;102019.78;;;11.58;64.39
33625;BME280;19962;47.820;1.930;2023-02-01T10:59:02;102017.25;;;11.56;63.91
33625;BME280;19962;47.820;1.930;2023-02-01T11:01:34;102002.91;;;11.61;64.07
33625;BME280;19962;47.820;1.930;2023-02-01T11:04:04;102006.31;;;11.63;64.03
33625;BME280;19962;47.820;1.930;2023-02-01T11:06:37;101996.59;;;11.67;64.76
33625;BME280;19962;47.820;1.930;2023-02-01T11:09:10;101992.97;;;11.60;64.40
33625;BME280;19962;47.820;1.930;2023-02-01T11:14:19;101997.50;;;11.74;64.32
33625;BME280;19962;47.820;1.930;2023-02-01T11:16:52;101992.19;;;11.72;63.97
33625;BME280;19962;47.820;1.930;2023-02-01T11:19:19;101982.06;;;11.73;64.06
33625;BME280;19962;47.820;1.930;2023-02-01T11:21:53;101971.25;;;11.71;63.04
33625;BME280;19962;47.820;1.930;2023-02-01T11:24:33;101971.47;;;11.70;63.42
33625;BME280;19962;47.820;1.930;2023-02-01T11:27:06;101975.06;;;11.70;63.42
33625;BME280;19962;47.820;1.930;2023-02-01T11:29:45;101967.88;;;11.76;63.96
33625;BME280;19962;47.820;1.930;2023-02-01T11:32:14;101961.78;;;11.80;63.84
33625;BME280;19962;47.820;1.930;2023-02-01T11:34:57;101960.94;;;11.80;63.35
33625;BME280;19962;47.820;1.930;2023-02-01T11:37:31;101951.44;;;11.82;63.64
33625;BME280;19962;47.820;1.930;2023-02-01T11:40:00;101950.16;;;11.85;63.86
33625;BME280;19962;47.820;1.930;2023-02-01T11:42:28;101946.78;;;11.83;63.95
33625;BME280;19962;47.820;1.930;2023-02-01T11:47:45;101932.44;;;11.94;63.61
33625;BME280;19962;47.820;1.930;2023-02-01T11:55:56;101931.19;;;11.90;62.31
33625;BME280;19962;47.820;1.930;2023-02-01T12:01:18;101926.75;;;12.02;62.88
33625;BME280;19962;47.820;1.930;2023-02-01T12:04:12;101931.19;;;12.03;62.81
33625;BME280;19962;47.820;1.930;2023-02-01T12:06:46;101926.97;;;12.07;62.60
33625;BME280;19962;47.820;1.930;2023-02-01T12:12:08;101929.16;;;12.18;63.41
33625;BME280;19962;47.820;1.930;2023-02-01T12:15:05;101915.59;;;12.23;62.83
33625;BME280;19962;47.820;1.930;2023-02-01T12:17:51;101905.88;;;12.27;62.83
33625;BME280;19962;47.820;1.930;2023-02-01T12:26:46;101893.59;;;12.23;61.82
33625;BME280;19962;47.820;1.930;2023-02-01T12:32:20;101894.19;;;12.18;62.37
33625;BME280;19962;47.820;1.930;2023-02-01T12:35:10;101888.94;;;12.17;61.94
33625;BME280;19962;47.820;1.930;2023-02-01T12:43:36;101887.91;;;12.31;62.03
33625;BME280;19962;47.820;1.930;2023-02-01T12:46:03;101891.69;;;12.23;62.00
33625;BME280;19962;47.820;1.930;2023-02-01T12:48:37;101890.22;;;12.21;61.86
33625;BME280;19962;47.820;1.930;2023-02-01T12:51:07;101887.03;;;12.24;61.86
33625;BME280;19962;47.820;1.930;2023-02-01T12:56:25;101882.41;;;12.31;61.94
33625;BME280;19962;47.820;1.930;2023-02-01T12:58:55;101876.22;;;12.29;61.44
33625;BME280;19962;47.820;1.930;2023-02-01T13:01:40;101855.28;;;12.21;61.03
33625;BME280;19962;47.820;1.930;2023-02-01T13:04:28;101846.41;;;12.19;60.90
33625;BME280;19962;47.820;1.930;2023-02-01T13:07:28;101836.00;;;12.21;61.31
33625;BME280;19962;47.820;1.930;2023-02-01T13:10:13;101826.28;;;12.25;61.66
33625;BME280;19962;47.820;1.930;2023-02-01T13:12:56;101819.09;;;12.24;61.22
33625;BME280;19962;47.820;1.930;2023-02-01T13:15:36;101824.81;;;12.23;61.72
33625;BME280;19962;47.820;1.930;2023-02-01T13:18:06;101834.72;;;12.11;61.79
33625;BME280;19962;47.820;1.930;2023-02-01T13:23:25;101856.31;;;12.01;61.66
33625;BME280;19962;47.820;1.930;2023-02-01T13:25:53;101858.41;;;11.92;62.36
33625;BME280;19962;47.820;1.930;2023-02-01T13:28:48;101871.53;;;11.97;61.75
33625;BME280;19962;47.820;1.930;2023-02-01T13:42:30;101842.16;;;12.10;62.57
33625;BME280;19962;47.820;1.930;2023-02-01T13:45:03;101849.94;;;12.07;62.49
33625;BME280;19962;47.820;1.930;2023-02-01T13:47:32;101842.34;;;12.02;62.68
33625;BME280;19962;47.820;1.930;2023-02-01T13:50:02;101844.88;;;12.04;63.25
33625;BME280;19962;47.820;1.930;2023-02-01T13:58:37;101839.41;;;12.10;62.23
33625;BME280;19962;47.820;1.930;2023-02-01T14:09:19;101831.97;;;12.11;61.72
33625;BME280;19962;47.820;1.930;2023-02-01T14:11:56;101841.94;;;12.12;61.36
33625;BME280;19962;47.820;1.930;2023-02-01T14:19:26;101838.50;;;11.97;59.53
33625;BME280;19962;47.820;1.930;2023-02-01T14:22:01;101837.44;;;11.91;59.76
33625;BME280;19962;47.820;1.930;2023-02-01T14:24:51;101826.66;;;11.90;60.21
33625;BME280;19962;47.820;1.930;2023-02-01T14:27:25;101835.16;;;12.01;60.62
33625;BME280;19962;47.820;1.930;2023-02-01T14:29:56;101826.88;;;11.95;60.69
33625;BME280;19962;47.820;1.930;2023-02-01T14:32:38;101820.75;;;12.06;60.11
33625;BME280;19962;47.820;1.930;2023-02-01T14:38:03;101815.50;;;12.37;59.85
33625;BME280;19962;47.820;1.930;2023-02-01T14:40:30;101821.66;;;12.39;60.06
33625;BME280;19962;47.820;1.930;2023-02-01T14:42:57;101827.97;;;12.46;59.71
33625;BME280;19962;47.820;1.930;2023-02-01T14:55:41;101827.16;;;12.39;60.64
33625;BME280;19962;47.820;1.930;2023-02-01T15:01:04;101822.47;;;12.46;61.15
33625;BME280;19962;47.820;1.930;2023-02-01T15:06:26;101843.88;;;12.44;60.66
33625;BME280;19962;47.820;1.930;2023-02-01T15:09:25;101831.78;;;12.38;59.92
33625;BME280;19962;47.820;1.930;2023-02-01T15:12:05;101825.88;;;12.48;60.13
33625;BME280;19962;47.820;1.930;2023-02-01T15:15:20;101824.81;;;12.49;59.64
33625;BME280;19962;47.820;1.930;2023-02-01T15:17:58;101828.19;;;12.44;59.91
33625;BME280;19962;47.820;1.930;2023-02-01T15:20:28;101827.56;;;12.42;60.62
33625;BME280;19962;47.820;1.930;2023-02-01T15:23:05;101822.69;;;12.38;60.05